Douglas Observed Data For Previous 48 Hours

Caption
Day and Hour Reservoir Elevation (behind dam)* Tailwater Elevation (below dam)* Average Hourly Discharge*
1/19/2019 2 AM EST 963.77 876.94 23,033
1/19/2019 3 AM EST 963.70 876.91 23,034
1/19/2019 4 AM EST 963.64 876.96 23,036
1/19/2019 5 AM EST 963.57 877.01 23,018
1/19/2019 6 AM EST 963.51 876.96 23,012
1/19/2019 7 AM EST 963.46 876.97 23,014
1/19/2019 8 AM EST 963.40 877.00 23,026
1/19/2019 9 AM EST 963.36 876.58 23,038
1/19/2019 10 AM EST 963.32 875.85 21,871
1/19/2019 11 AM EST 963.28 875.82 15,609
1/19/2019 12 PM EST 963.23 875.80 15,582
1/19/2019 1 PM EST 963.21 875.76 15,566
1/19/2019 2 PM EST 963.17 875.80 15,557
1/19/2019 3 PM EST 963.15 875.81 15,563
1/19/2019 4 PM EST 963.12 875.84 15,598
1/19/2019 5 PM EST 963.07 875.79 15,584
1/19/2019 6 PM EST 963.05 875.77 15,609
1/19/2019 7 PM EST 963.05 875.78 15,616
1/19/2019 8 PM EST 963.04 875.82 15,562
1/19/2019 9 PM EST 963.01 875.79 15,596
1/19/2019 10 PM EST 963.05 875.80 15,545
1/19/2019 11 PM EST 963.01 875.80 15,534
1/20/2019 12 AM EST 963.00 875.82 15,567
1/20/2019 1 AM EST 962.96 875.80 15,560
1/20/2019 2 AM EST 962.98 873.03 5,290
1/20/2019 3 AM EST 963.04 872.73 4,621
1/20/2019 4 AM EST 963.12 872.76 4,607
1/20/2019 5 AM EST 963.21 872.73 4,624
1/20/2019 6 AM EST 963.23 872.72 4,609
1/20/2019 7 AM EST 963.26 872.67 4,614
1/20/2019 8 AM EST 963.33 872.73 4,620
1/20/2019 9 AM EST 963.42 872.73 4,653
1/20/2019 10 AM EST 963.49 872.66 4,637
1/20/2019 11 AM EST 963.52 872.72 4,624
1/20/2019 12 PM EST 963.56 872.74 4,627
1/20/2019 1 PM EST 963.57 875.33 12,134
1/20/2019 2 PM EST 963.59 875.81 15,421
1/20/2019 3 PM EST 963.60 875.81 15,479
1/20/2019 4 PM EST 963.61 875.79 15,500
1/20/2019 5 PM EST 963.60 875.87 15,522
1/20/2019 6 PM EST 963.59 875.82 15,532
1/20/2019 7 PM EST 963.61 875.80 15,510
1/20/2019 8 PM EST 963.61 875.82 15,500
1/20/2019 9 PM EST 963.60 875.82 15,502
1/20/2019 10 PM EST 963.60 875.85 15,516
1/20/2019 11 PM EST 963.61 875.82 15,505
1/21/2019 12 AM EST 963.62 875.80 15,513
1/21/2019 1 AM EST 963.64 875.83 15,521
1/21/2019 2 AM EST 963.65 875.81 15,506
1/21/2019 3 AM EST 963.64 875.84 15,474
1/21/2019 4 AM EST 963.63 875.84 15,493
1/21/2019 5 AM EST 963.64 875.81 15,510

Elevations are in feet above sea level. Discharges are in cubic feet per second and are reported at the end of the hour.